Albert Maersk — OUOW2 — position and weather

sailwx.info

Track history (hours):
 
Tides and Currents Weather Stations Pressure Air Temp Water Temp Dewpoint Dewpoint Depression Visibility Wind Speed Wind Dir Waves Ship Positions

Albert Maersk

Last reported at 2015-Apr-12 00:33 UTC. Time now 2015-Apr-18 04:53 UTC.
Position N 01°17' E 103°45'.

MMSI: 220259928.

Date/timePositionNaut miles runAvg speedWind from/ knotsBaromVisibWave heightAir tempDewpointWater temp
2015-Apr-12 00:33N 01°17' E 103°45'0 0.0
2015-Apr-11 23:32N 01°17' E 103°45'0 0.0
2015-Apr-11 22:11N 01°17' E 103°45'0 0.0
2015-Apr-11 21:26N 01°17' E 103°45'0 0.0
2015-Apr-11 20:32N 01°17' E 103°45'0 0.0
2015-Apr-11 19:17N 01°17' E 103°45'0 0.0
2015-Apr-11 16:26N 01°17' E 103°45'0 0.0
2015-Apr-11 15:32N 01°17' E 103°45'0 0.0
2015-Apr-11 14:23N 01°17' E 103°45'0 0.0
2015-Apr-11 13:11N 01°17' E 103°45'0 0.0
2015-Apr-11 12:11N 01°17' E 103°45'0 0.0
2015-Apr-11 11:11N 01°17' E 103°45'0 0.0
2015-Apr-11 09:29N 01°17' E 103°45'0 0.0
2015-Apr-11 08:11N 01°17' E 103°45'0 0.0
2015-Apr-11 07:14N 01°17' E 103°45'0 0.0
2015-Apr-11 06:29N 01°17' E 103°45'8 0.9
2015-Apr-10 21:33N 01°14' E 103°53'6 5.6
2015-Apr-10 20:33N 01°15' E 103°58'10 9.8
2015-Apr-10 19:33N 01°16' E 104°08'12 9.1
2015-Apr-10 18:12N 01°19' E 104°20'  
2015-Apr-07 18:26N 21°54' E 114°24'1821.1
2015-Apr-07 17:33N 22°12' E 114°28'25 5.7
2015-Apr-07 13:06N 22°34' E 114°16'0 0.0
2015-Apr-07 12:24N 22°34' E 114°16'0 0.0
2015-Apr-07 11:24N 22°34' E 114°16'0 0.0
2015-Apr-07 10:24N 22°34' E 114°16'0 0.0
2015-Apr-07 04:09N 22°34' E 114°16'16 8.7
2015-Apr-07 02:17N 22°22' E 114°28'1318.1
2015-Apr-07 01:33N 22°10' E 114°22'1611.4
2015-Apr-07 00:08N 22°16' E 114°06'4 5.1
2015-Apr-06 23:24N 22°20' E 114°07'0 0.1
2015-Apr-06 22:33N 22°20' E 114°07'0 0.0
2015-Apr-06 21:33N 22°20' E 114°07'0 0.0
2015-Apr-06 20:33N 22°20' E 114°07'0 0.0
2015-Apr-06 19:33N 22°20' E 114°07'0 0.0
2015-Apr-06 18:33N 22°20' E 114°07'0 0.0
2015-Apr-06 17:33N 22°20' E 114°07'0 0.0
2015-Apr-06 16:33N 22°20' E 114°07'0 0.0
2015-Apr-06 15:33N 22°20' E 114°07'0 0.0
2015-Apr-06 14:33N 22°20' E 114°07'0 0.0
2015-Apr-06 13:27N 22°20' E 114°07'0 0.0
2015-Apr-06 12:33N 22°20' E 114°07'0 0.0
2015-Apr-06 11:33N 22°20' E 114°07'0 0.0
2015-Apr-06 10:30N 22°20' E 114°07'0 0.0
2015-Apr-06 09:33N 22°20' E 114°07'0 0.0
2015-Apr-06 08:30N 22°20' E 114°07'0 0.0
2015-Apr-06 07:33N 22°20' E 114°07'0 0.0
2015-Apr-06 06:27N 22°20' E 114°07'2 2.6
2015-Apr-06 05:33N 22°18' E 114°06'1010.2
2015-Apr-06 04:32N 22°10' E 114°13'1111.8
2015-Apr-06 03:33N 22°09' E 114°25'32911.6
2015-Apr-04 23:18N 22°33' E 120°20'0 0.0
2015-Apr-04 17:33N 22°33' E 120°20'5 5.2
2015-Apr-04 16:33N 22°32' E 120°14'1515.5
2015-Apr-04 15:33N 22°45' E 120°05'43521.6
2015-Apr-03 19:25N 29°39' E 122°34'1315.6
2015-Apr-03 18:34N 29°44' E 122°20'1313.3
2015-Apr-03 17:34N 29°54' E 122°10'7 6.7
2015-Apr-03 16:33N 29°54' E 122°02'0 0.0
2015-Apr-03 15:33N 29°54' E 122°02'0 0.0
2015-Apr-03 14:33N 29°54' E 122°02'0 0.0
2015-Apr-03 13:33N 29°54' E 122°02'0 0.0
2015-Apr-03 12:27N 29°54' E 122°02'0 0.0
2015-Apr-03 11:33N 29°54' E 122°02'0 0.0
2015-Apr-03 10:33N 29°54' E 122°02'0 0.1
2015-Apr-03 09:27N 29°54' E 122°02'0 0.1
2015-Apr-03 08:33N 29°54' E 122°02'0 0.0
2015-Apr-03 07:33N 29°54' E 122°02'0 0.0
2015-Apr-03 06:27N 29°54' E 122°02'0 0.0
2015-Apr-03 05:30N 29°54' E 122°02'0 0.0
2015-Apr-03 04:33N 29°54' E 122°02'6 5.8
2015-Apr-03 03:33N 29°56' E 122°08'9 9.1
2015-Apr-03 02:33N 29°48' E 122°15'8 7.6
2015-Apr-03 01:33N 29°44' E 122°22'1110.7
2015-Apr-03 00:33N 29°46' E 122°34'0 0.1
2015-Apr-02 20:22N 29°46' E 122°34'0 0.1
2015-Apr-02 15:04N 29°46' E 122°34'0 0.0
2015-Apr-02 10:04N 29°46' E 122°34'0 0.0
2015-Apr-02 09:19N 29°46' E 122°34'0 0.1
2015-Apr-02 08:31N 29°46' E 122°34'0 0.0
2015-Apr-02 07:31N 29°46' E 122°34'0 0.1
2015-Apr-02 06:31N 29°46' E 122°35'0 0.0
2015-Apr-02 05:31N 29°46' E 122°35'0 0.1
2015-Apr-02 04:25N 29°46' E 122°34'0 0.1
2015-Apr-02 03:31N 29°46' E 122°34'  
Track history (hours):
 
Tides and Currents Weather Stations Pressure Air Temp Water Temp Dewpoint Dewpoint Depression Visibility Wind Speed Wind Dir Waves Ship Positions

Albert Maersk

Last reported at 2015-Apr-12 00:33 UTC. Time now 2015-Apr-18 04:53 UTC.
Position N 01°17' E 103°45'.

MMSI: 220259928.

Date/timePositionNaut miles runAvg speedWind from/ knotsBaromVisibWave heightAir tempDewpointWater temp
2015-Apr-12 00:33N 01°17' E 103°45'0 0.0
2015-Apr-11 23:32N 01°17' E 103°45'0 0.0
2015-Apr-11 22:11N 01°17' E 103°45'0 0.0
2015-Apr-11 21:26N 01°17' E 103°45'0 0.0
2015-Apr-11 20:32N 01°17' E 103°45'0 0.0
2015-Apr-11 19:17N 01°17' E 103°45'0 0.0
2015-Apr-11 16:26N 01°17' E 103°45'0 0.0
2015-Apr-11 15:32N 01°17' E 103°45'0 0.0
2015-Apr-11 14:23N 01°17' E 103°45'0 0.0
2015-Apr-11 13:11N 01°17' E 103°45'0 0.0
2015-Apr-11 12:11N 01°17' E 103°45'0 0.0
2015-Apr-11 11:11N 01°17' E 103°45'0 0.0
2015-Apr-11 09:29N 01°17' E 103°45'0 0.0
2015-Apr-11 08:11N 01°17' E 103°45'0 0.0
2015-Apr-11 07:14N 01°17' E 103°45'0 0.0
2015-Apr-11 06:29N 01°17' E 103°45'8 0.9
2015-Apr-10 21:33N 01°14' E 103°53'6 5.6
2015-Apr-10 20:33N 01°15' E 103°58'10 9.8
2015-Apr-10 19:33N 01°16' E 104°08'12 9.1
2015-Apr-10 18:12N 01°19' E 104°20'  
2015-Apr-07 18:26N 21°54' E 114°24'1821.1
2015-Apr-07 17:33N 22°12' E 114°28'25 5.7
2015-Apr-07 13:06N 22°34' E 114°16'0 0.0
2015-Apr-07 12:24N 22°34' E 114°16'0 0.0
2015-Apr-07 11:24N 22°34' E 114°16'0 0.0
2015-Apr-07 10:24N 22°34' E 114°16'0 0.0
2015-Apr-07 04:09N 22°34' E 114°16'16 8.7
2015-Apr-07 02:17N 22°22' E 114°28'1318.1
2015-Apr-07 01:33N 22°10' E 114°22'1611.4
2015-Apr-07 00:08N 22°16' E 114°06'4 5.1
2015-Apr-06 23:24N 22°20' E 114°07'0 0.1
2015-Apr-06 22:33N 22°20' E 114°07'0 0.0
2015-Apr-06 21:33N 22°20' E 114°07'0 0.0
2015-Apr-06 20:33N 22°20' E 114°07'0 0.0
2015-Apr-06 19:33N 22°20' E 114°07'0 0.0
2015-Apr-06 18:33N 22°20' E 114°07'0 0.0
2015-Apr-06 17:33N 22°20' E 114°07'0 0.0
2015-Apr-06 16:33N 22°20' E 114°07'0 0.0
2015-Apr-06 15:33N 22°20' E 114°07'0 0.0
2015-Apr-06 14:33N 22°20' E 114°07'0 0.0
2015-Apr-06 13:27N 22°20' E 114°07'0 0.0
2015-Apr-06 12:33N 22°20' E 114°07'0 0.0
2015-Apr-06 11:33N 22°20' E 114°07'0 0.0
2015-Apr-06 10:30N 22°20' E 114°07'0 0.0
2015-Apr-06 09:33N 22°20' E 114°07'0 0.0
2015-Apr-06 08:30N 22°20' E 114°07'0 0.0
2015-Apr-06 07:33N 22°20' E 114°07'0 0.0
2015-Apr-06 06:27N 22°20' E 114°07'2 2.6
2015-Apr-06 05:33N 22°18' E 114°06'1010.2
2015-Apr-06 04:32N 22°10' E 114°13'1111.8
2015-Apr-06 03:33N 22°09' E 114°25'32911.6
2015-Apr-04 23:18N 22°33' E 120°20'0 0.0
2015-Apr-04 17:33N 22°33' E 120°20'5 5.2
2015-Apr-04 16:33N 22°32' E 120°14'1515.5
2015-Apr-04 15:33N 22°45' E 120°05'43521.6
2015-Apr-03 19:25N 29°39' E 122°34'1315.6
2015-Apr-03 18:34N 29°44' E 122°20'1313.3
2015-Apr-03 17:34N 29°54' E 122°10'7 6.7
2015-Apr-03 16:33N 29°54' E 122°02'0 0.0
2015-Apr-03 15:33N 29°54' E 122°02'0 0.0
2015-Apr-03 14:33N 29°54' E 122°02'0 0.0
2015-Apr-03 13:33N 29°54' E 122°02'0 0.0
2015-Apr-03 12:27N 29°54' E 122°02'0 0.0
2015-Apr-03 11:33N 29°54' E 122°02'0 0.0
2015-Apr-03 10:33N 29°54' E 122°02'0 0.1
2015-Apr-03 09:27N 29°54' E 122°02'0 0.1
2015-Apr-03 08:33N 29°54' E 122°02'0 0.0
2015-Apr-03 07:33N 29°54' E 122°02'0 0.0
2015-Apr-03 06:27N 29°54' E 122°02'0 0.0
2015-Apr-03 05:30N 29°54' E 122°02'0 0.0
2015-Apr-03 04:33N 29°54' E 122°02'6 5.8
2015-Apr-03 03:33N 29°56' E 122°08'9 9.1
2015-Apr-03 02:33N 29°48' E 122°15'8 7.6
2015-Apr-03 01:33N 29°44' E 122°22'1110.7
2015-Apr-03 00:33N 29°46' E 122°34'0 0.1
2015-Apr-02 20:22N 29°46' E 122°34'0 0.1
2015-Apr-02 15:04N 29°46' E 122°34'0 0.0
2015-Apr-02 10:04N 29°46' E 122°34'0 0.0
2015-Apr-02 09:19N 29°46' E 122°34'0 0.1
2015-Apr-02 08:31N 29°46' E 122°34'0 0.0
2015-Apr-02 07:31N 29°46' E 122°34'0 0.1
2015-Apr-02 06:31N 29°46' E 122°35'0 0.0
2015-Apr-02 05:31N 29°46' E 122°35'0 0.1
2015-Apr-02 04:25N 29°46' E 122°34'0 0.1
2015-Apr-02 03:31N 29°46' E 122°34'  

Dump ship's entire track history